sensor_id;sensor_type;location;lat;lon;timestamp;P1;durP1;ratioP1;P2;durP2;ratioP2
48161;SDS011;33950;48.154;16.316;2023-01-23T00:00:48;54.83;;;22.83;;
48161;SDS011;33950;48.154;16.316;2023-01-23T00:03:34;60.17;;;22.75;;
48161;SDS011;33950;48.154;16.316;2023-01-23T00:06:21;53.80;;;21.95;;
48161;SDS011;33950;48.154;16.316;2023-01-23T00:09:09;54.72;;;22.75;;
48161;SDS011;33950;48.154;16.316;2023-01-23T00:11:55;55.08;;;22.52;;
48161;SDS011;33950;48.154;16.316;2023-01-23T00:14:41;51.08;;;22.02;;
48161;SDS011;33950;48.154;16.316;2023-01-23T00:17:27;53.00;;;22.15;;
48161;SDS011;33950;48.154;16.316;2023-01-23T00:20:13;55.45;;;21.95;;
48161;SDS011;33950;48.154;16.316;2023-01-23T00:23:00;55.40;;;22.15;;
48161;SDS011;33950;48.154;16.316;2023-01-23T00:25:47;53.28;;;21.95;;
48161;SDS011;33950;48.154;16.316;2023-01-23T00:28:33;58.78;;;22.48;;
48161;SDS011;33950;48.154;16.316;2023-01-23T00:31:20;58.08;;;22.92;;
48161;SDS011;33950;48.154;16.316;2023-01-23T00:34:10;54.15;;;21.70;;
48161;SDS011;33950;48.154;16.316;2023-01-23T00:36:58;57.80;;;24.17;;
48161;SDS011;33950;48.154;16.316;2023-01-23T00:39:44;54.00;;;21.63;;
48161;SDS011;33950;48.154;16.316;2023-01-23T00:42:31;56.25;;;21.90;;
48161;SDS011;33950;48.154;16.316;2023-01-23T00:45:17;55.72;;;22.23;;
48161;SDS011;33950;48.154;16.316;2023-01-23T00:48:04;53.63;;;22.17;;
48161;SDS011;33950;48.154;16.316;2023-01-23T00:50:50;57.40;;;23.45;;
48161;SDS011;33950;48.154;16.316;2023-01-23T00:53:36;53.60;;;21.67;;
48161;SDS011;33950;48.154;16.316;2023-01-23T00:56:22;58.55;;;24.75;;
48161;SDS011;33950;48.154;16.316;2023-01-23T00:59:10;57.75;;;24.30;;
48161;SDS011;33950;48.154;16.316;2023-01-23T01:01:56;56.53;;;22.40;;
48161;SDS011;33950;48.154;16.316;2023-01-23T01:04:42;51.80;;;23.35;;
48161;SDS011;33950;48.154;16.316;2023-01-23T01:07:28;61.85;;;24.50;;
48161;SDS011;33950;48.154;16.316;2023-01-23T01:10:14;59.30;;;23.20;;
48161;SDS011;33950;48.154;16.316;2023-01-23T01:13:01;60.72;;;23.40;;
48161;SDS011;33950;48.154;16.316;2023-01-23T01:15:49;67.95;;;24.50;;
48161;SDS011;33950;48.154;16.316;2023-01-23T01:18:36;55.85;;;21.73;;
48161;SDS011;33950;48.154;16.316;2023-01-23T01:21:23;60.47;;;24.23;;
48161;SDS011;33950;48.154;16.316;2023-01-23T01:24:09;60.63;;;24.10;;
48161;SDS011;33950;48.154;16.316;2023-01-23T01:26:55;55.80;;;22.45;;
48161;SDS011;33950;48.154;16.316;2023-01-23T01:29:41;61.17;;;22.02;;
48161;SDS011;33950;48.154;16.316;2023-01-23T01:32:29;53.78;;;22.17;;
48161;SDS011;33950;48.154;16.316;2023-01-23T01:35:15;59.85;;;23.08;;
48161;SDS011;33950;48.154;16.316;2023-01-23T01:38:01;57.05;;;22.48;;
48161;SDS011;33950;48.154;16.316;2023-01-23T01:40:47;65.35;;;23.67;;
48161;SDS011;33950;48.154;16.316;2023-01-23T01:43:33;64.97;;;23.52;;
48161;SDS011;33950;48.154;16.316;2023-01-23T01:46:20;68.03;;;24.33;;
48161;SDS011;33950;48.154;16.316;2023-01-23T01:49:09;64.90;;;24.85;;
48161;SDS011;33950;48.154;16.316;2023-01-23T01:51:57;67.40;;;25.25;;
48161;SDS011;33950;48.154;16.316;2023-01-23T01:54:47;66.30;;;24.58;;
48161;SDS011;33950;48.154;16.316;2023-01-23T01:57:39;71.75;;;24.83;;
48161;SDS011;33950;48.154;16.316;2023-01-23T02:00:28;61.70;;;24.02;;
48161;SDS011;33950;48.154;16.316;2023-01-23T02:03:14;62.45;;;23.77;;
48161;SDS011;33950;48.154;16.316;2023-01-23T02:06:03;72.28;;;25.90;;
48161;SDS011;33950;48.154;16.316;2023-01-23T02:08:51;70.75;;;25.40;;
48161;SDS011;33950;48.154;16.316;2023-01-23T02:11:42;68.93;;;25.20;;
48161;SDS011;33950;48.154;16.316;2023-01-23T02:14:28;70.75;;;26.00;;
48161;SDS011;33950;48.154;16.316;2023-01-23T02:17:15;72.85;;;25.80;;
48161;SDS011;33950;48.154;16.316;2023-01-23T02:20:02;73.05;;;26.23;;
48161;SDS011;33950;48.154;16.316;2023-01-23T02:22:57;67.63;;;24.10;;
48161;SDS011;33950;48.154;16.316;2023-01-23T02:25:53;74.53;;;26.98;;
48161;SDS011;33950;48.154;16.316;2023-01-23T02:28:43;74.75;;;27.73;;
48161;SDS011;33950;48.154;16.316;2023-01-23T02:31:31;71.43;;;26.63;;
48161;SDS011;33950;48.154;16.316;2023-01-23T02:34:17;74.75;;;26.95;;
48161;SDS011;33950;48.154;16.316;2023-01-23T02:37:03;77.00;;;27.90;;
48161;SDS011;33950;48.154;16.316;2023-01-23T02:39:50;76.60;;;29.02;;
48161;SDS011;33950;48.154;16.316;2023-01-23T02:42:38;80.60;;;29.33;;
48161;SDS011;33950;48.154;16.316;2023-01-23T02:45:27;79.88;;;28.55;;
48161;SDS011;33950;48.154;16.316;2023-01-23T02:48:13;82.60;;;28.92;;
48161;SDS011;33950;48.154;16.316;2023-01-23T02:51:00;82.55;;;29.75;;
48161;SDS011;33950;48.154;16.316;2023-01-23T02:53:46;88.75;;;30.23;;
48161;SDS011;33950;48.154;16.316;2023-01-23T02:56:32;85.07;;;30.63;;
48161;SDS011;33950;48.154;16.316;2023-01-23T02:59:20;97.00;;;30.23;;
48161;SDS011;33950;48.154;16.316;2023-01-23T03:02:24;95.40;;;30.88;;
48161;SDS011;33950;48.154;16.316;2023-01-23T03:05:11;87.90;;;30.20;;
48161;SDS011;33950;48.154;16.316;2023-01-23T03:07:58;84.38;;;28.85;;
48161;SDS011;33950;48.154;16.316;2023-01-23T03:10:44;84.07;;;31.77;;
48161;SDS011;33950;48.154;16.316;2023-01-23T03:13:30;85.60;;;30.25;;
48161;SDS011;33950;48.154;16.316;2023-01-23T03:16:18;90.30;;;31.73;;
48161;SDS011;33950;48.154;16.316;2023-01-23T03:19:06;82.47;;;30.85;;
48161;SDS011;33950;48.154;16.316;2023-01-23T03:21:53;94.93;;;32.25;;
48161;SDS011;33950;48.154;16.316;2023-01-23T03:24:39;95.60;;;33.03;;
48161;SDS011;33950;48.154;16.316;2023-01-23T03:27:25;95.07;;;32.55;;
48161;SDS011;33950;48.154;16.316;2023-01-23T03:30:12;91.05;;;31.40;;
48161;SDS011;33950;48.154;16.316;2023-01-23T03:33:01;95.03;;;32.90;;
48161;SDS011;33950;48.154;16.316;2023-01-23T03:35:47;103.47;;;34.30;;
48161;SDS011;33950;48.154;16.316;2023-01-23T03:38:34;90.40;;;31.48;;
48161;SDS011;33950;48.154;16.316;2023-01-23T03:41:20;95.10;;;30.80;;
48161;SDS011;33950;48.154;16.316;2023-01-23T03:44:12;83.43;;;28.08;;
48161;SDS011;33950;48.154;16.316;2023-01-23T03:46:58;92.22;;;30.92;;
48161;SDS011;33950;48.154;16.316;2023-01-23T03:49:45;91.40;;;32.08;;
48161;SDS011;33950;48.154;16.316;2023-01-23T03:52:31;98.43;;;34.00;;
48161;SDS011;33950;48.154;16.316;2023-01-23T03:55:17;97.13;;;31.67;;
48161;SDS011;33950;48.154;16.316;2023-01-23T03:58:03;91.20;;;30.98;;
48161;SDS011;33950;48.154;16.316;2023-01-23T04:00:49;86.70;;;31.15;;
48161;SDS011;33950;48.154;16.316;2023-01-23T04:03:36;89.40;;;31.85;;
48161;SDS011;33950;48.154;16.316;2023-01-23T04:06:23;81.47;;;30.85;;
48161;SDS011;33950;48.154;16.316;2023-01-23T04:09:09;79.32;;;28.77;;
48161;SDS011;33950;48.154;16.316;2023-01-23T04:11:56;84.45;;;29.55;;
48161;SDS011;33950;48.154;16.316;2023-01-23T04:14:43;74.85;;;28.70;;
48161;SDS011;33950;48.154;16.316;2023-01-23T04:17:29;92.50;;;31.90;;
48161;SDS011;33950;48.154;16.316;2023-01-23T04:20:15;75.90;;;29.20;;
48161;SDS011;33950;48.154;16.316;2023-01-23T04:23:03;84.85;;;30.40;;
48161;SDS011;33950;48.154;16.316;2023-01-23T04:25:49;83.22;;;32.20;;
48161;SDS011;33950;48.154;16.316;2023-01-23T04:28:38;82.38;;;29.92;;
48161;SDS011;33950;48.154;16.316;2023-01-23T04:31:25;83.82;;;30.98;;
48161;SDS011;33950;48.154;16.316;2023-01-23T04:34:11;82.80;;;30.38;;
48161;SDS011;33950;48.154;16.316;2023-01-23T04:36:57;83.18;;;30.52;;
48161;SDS011;33950;48.154;16.316;2023-01-23T04:39:44;86.43;;;30.60;;
48161;SDS011;33950;48.154;16.316;2023-01-23T04:42:30;84.18;;;31.52;;
48161;SDS011;33950;48.154;16.316;2023-01-23T04:45:16;91.57;;;32.55;;
48161;SDS011;33950;48.154;16.316;2023-01-23T04:48:03;89.60;;;31.73;;
48161;SDS011;33950;48.154;16.316;2023-01-23T04:50:49;82.80;;;31.08;;
48161;SDS011;33950;48.154;16.316;2023-01-23T04:53:36;81.18;;;30.00;;
48161;SDS011;33950;48.154;16.316;2023-01-23T04:56:24;81.47;;;31.65;;
48161;SDS011;33950;48.154;16.316;2023-01-23T04:59:10;81.50;;;32.20;;
48161;SDS011;33950;48.154;16.316;2023-01-23T05:01:57;93.18;;;32.22;;
48161;SDS011;33950;48.154;16.316;2023-01-23T05:04:43;96.18;;;33.50;;
48161;SDS011;33950;48.154;16.316;2023-01-23T05:07:29;91.75;;;33.95;;
48161;SDS011;33950;48.154;16.316;2023-01-23T05:10:15;101.97;;;33.35;;
48161;SDS011;33950;48.154;16.316;2023-01-23T05:13:03;94.22;;;34.47;;
48161;SDS011;33950;48.154;16.316;2023-01-23T05:15:49;105.90;;;34.50;;
48161;SDS011;33950;48.154;16.316;2023-01-23T05:18:35;95.22;;;33.15;;
48161;SDS011;33950;48.154;16.316;2023-01-23T05:21:21;96.00;;;32.78;;
48161;SDS011;33950;48.154;16.316;2023-01-23T05:24:08;102.78;;;33.47;;
48161;SDS011;33950;48.154;16.316;2023-01-23T05:26:55;95.63;;;32.63;;
48161;SDS011;33950;48.154;16.316;2023-01-23T05:29:43;89.35;;;30.38;;
48161;SDS011;33950;48.154;16.316;2023-01-23T05:32:29;87.22;;;30.02;;
48161;SDS011;33950;48.154;16.316;2023-01-23T05:35:15;101.85;;;32.13;;
48161;SDS011;33950;48.154;16.316;2023-01-23T05:38:02;98.28;;;31.55;;
48161;SDS011;33950;48.154;16.316;2023-01-23T05:40:48;88.57;;;30.08;;
48161;SDS011;33950;48.154;16.316;2023-01-23T05:43:34;87.20;;;28.40;;
48161;SDS011;33950;48.154;16.316;2023-01-23T05:46:21;92.43;;;29.30;;
48161;SDS011;33950;48.154;16.316;2023-01-23T05:49:07;93.25;;;29.52;;
48161;SDS011;33950;48.154;16.316;2023-01-23T05:51:53;89.18;;;30.48;;
48161;SDS011;33950;48.154;16.316;2023-01-23T05:54:39;80.60;;;30.33;;
48161;SDS011;33950;48.154;16.316;2023-01-23T05:57:25;92.15;;;30.42;;
48161;SDS011;33950;48.154;16.316;2023-01-23T06:00:12;88.20;;;29.75;;
48161;SDS011;33950;48.154;16.316;2023-01-23T06:03:00;92.35;;;30.77;;
48161;SDS011;33950;48.154;16.316;2023-01-23T06:05:46;103.57;;;31.85;;
48161;SDS011;33950;48.154;16.316;2023-01-23T06:08:32;75.10;;;24.83;;
48161;SDS011;33950;48.154;16.316;2023-01-23T06:11:18;58.40;;;20.92;;
48161;SDS011;33950;48.154;16.316;2023-01-23T06:14:05;59.17;;;22.42;;
48161;SDS011;33950;48.154;16.316;2023-01-23T06:16:51;55.22;;;21.20;;
48161;SDS011;33950;48.154;16.316;2023-01-23T06:19:38;61.80;;;22.90;;
48161;SDS011;33950;48.154;16.316;2023-01-23T06:22:24;62.75;;;23.58;;
48161;SDS011;33950;48.154;16.316;2023-01-23T06:25:10;60.65;;;22.70;;
48161;SDS011;33950;48.154;16.316;2023-01-23T06:27:56;63.45;;;23.33;;
48161;SDS011;33950;48.154;16.316;2023-01-23T06:30:43;55.38;;;21.60;;
48161;SDS011;33950;48.154;16.316;2023-01-23T06:33:29;55.10;;;22.23;;
48161;SDS011;33950;48.154;16.316;2023-01-23T06:36:16;61.55;;;23.83;;
48161;SDS011;33950;48.154;16.316;2023-01-23T06:39:02;58.55;;;22.33;;
48161;SDS011;33950;48.154;16.316;2023-01-23T06:41:48;58.42;;;20.38;;
48161;SDS011;33950;48.154;16.316;2023-01-23T06:44:34;53.30;;;20.63;;
48161;SDS011;33950;48.154;16.316;2023-01-23T06:47:21;50.63;;;20.25;;
48161;SDS011;33950;48.154;16.316;2023-01-23T06:50:08;54.65;;;19.42;;
48161;SDS011;33950;48.154;16.316;2023-01-23T06:52:56;49.67;;;20.63;;
48161;SDS011;33950;48.154;16.316;2023-01-23T06:55:43;55.75;;;21.33;;
48161;SDS011;33950;48.154;16.316;2023-01-23T06:58:29;57.92;;;20.67;;
48161;SDS011;33950;48.154;16.316;2023-01-23T07:01:16;51.53;;;19.95;;
48161;SDS011;33950;48.154;16.316;2023-01-23T07:04:03;58.42;;;22.17;;
48161;SDS011;33950;48.154;16.316;2023-01-23T07:06:49;54.88;;;21.20;;
48161;SDS011;33950;48.154;16.316;2023-01-23T07:09:37;58.85;;;21.83;;
48161;SDS011;33950;48.154;16.316;2023-01-23T07:12:23;51.78;;;20.23;;
48161;SDS011;33950;48.154;16.316;2023-01-23T07:15:09;58.50;;;21.33;;
48161;SDS011;33950;48.154;16.316;2023-01-23T07:17:56;56.63;;;21.60;;
48161;SDS011;33950;48.154;16.316;2023-01-23T07:20:42;56.08;;;20.55;;
48161;SDS011;33950;48.154;16.316;2023-01-23T07:23:28;54.00;;;21.23;;
48161;SDS011;33950;48.154;16.316;2023-01-23T07:26:16;51.30;;;20.83;;
48161;SDS011;33950;48.154;16.316;2023-01-23T07:29:02;61.05;;;22.23;;
48161;SDS011;33950;48.154;16.316;2023-01-23T07:31:48;63.28;;;22.70;;
48161;SDS011;33950;48.154;16.316;2023-01-23T07:34:34;51.00;;;21.98;;
48161;SDS011;33950;48.154;16.316;2023-01-23T07:37:20;57.42;;;22.30;;
48161;SDS011;33950;48.154;16.316;2023-01-23T07:40:07;53.53;;;21.17;;
48161;SDS011;33950;48.154;16.316;2023-01-23T07:42:56;51.53;;;19.55;;
48161;SDS011;33950;48.154;16.316;2023-01-23T07:45:42;55.08;;;20.98;;
48161;SDS011;33950;48.154;16.316;2023-01-23T07:48:29;49.67;;;20.13;;
48161;SDS011;33950;48.154;16.316;2023-01-23T07:51:15;49.28;;;20.08;;
48161;SDS011;33950;48.154;16.316;2023-01-23T07:54:01;61.05;;;20.58;;
48161;SDS011;33950;48.154;16.316;2023-01-23T07:56:48;55.55;;;22.25;;
48161;SDS011;33950;48.154;16.316;2023-01-23T07:59:36;57.78;;;21.30;;
48161;SDS011;33950;48.154;16.316;2023-01-23T08:02:22;53.75;;;19.45;;
48161;SDS011;33950;48.154;16.316;2023-01-23T08:05:08;58.80;;;21.67;;
48161;SDS011;33950;48.154;16.316;2023-01-23T08:07:55;57.33;;;22.42;;
48161;SDS011;33950;48.154;16.316;2023-01-23T08:10:41;61.03;;;22.88;;
48161;SDS011;33950;48.154;16.316;2023-01-23T08:13:27;51.83;;;19.70;;
48161;SDS011;33950;48.154;16.316;2023-01-23T08:16:14;50.97;;;21.42;;
48161;SDS011;33950;48.154;16.316;2023-01-23T08:19:00;56.85;;;20.63;;
48161;SDS011;33950;48.154;16.316;2023-01-23T08:21:50;56.97;;;21.92;;
48161;SDS011;33950;48.154;16.316;2023-01-23T08:24:36;53.97;;;21.15;;
48161;SDS011;33950;48.154;16.316;2023-01-23T08:27:22;54.92;;;21.95;;
48161;SDS011;33950;48.154;16.316;2023-01-23T08:30:09;63.17;;;23.98;;
48161;SDS011;33950;48.154;16.316;2023-01-23T08:32:57;56.25;;;21.95;;
48161;SDS011;33950;48.154;16.316;2023-01-23T08:35:47;56.67;;;20.58;;
48161;SDS011;33950;48.154;16.316;2023-01-23T08:38:34;57.17;;;22.67;;
48161;SDS011;33950;48.154;16.316;2023-01-23T08:41:20;57.55;;;21.58;;
48161;SDS011;33950;48.154;16.316;2023-01-23T08:44:07;57.75;;;22.42;;
48161;SDS011;33950;48.154;16.316;2023-01-23T08:46:53;57.22;;;22.65;;
48161;SDS011;33950;48.154;16.316;2023-01-23T08:49:41;62.22;;;21.55;;
48161;SDS011;33950;48.154;16.316;2023-01-23T08:52:27;57.60;;;22.00;;
48161;SDS011;33950;48.154;16.316;2023-01-23T08:55:13;54.35;;;21.17;;
48161;SDS011;33950;48.154;16.316;2023-01-23T08:58:00;66.13;;;22.77;;
48161;SDS011;33950;48.154;16.316;2023-01-23T09:00:46;56.33;;;22.38;;
48161;SDS011;33950;48.154;16.316;2023-01-23T09:03:33;53.97;;;21.70;;
48161;SDS011;33950;48.154;16.316;2023-01-23T09:06:21;64.72;;;23.48;;
48161;SDS011;33950;48.154;16.316;2023-01-23T09:09:07;63.42;;;21.33;;
48161;SDS011;33950;48.154;16.316;2023-01-23T09:11:53;58.70;;;22.65;;
48161;SDS011;33950;48.154;16.316;2023-01-23T09:14:40;67.80;;;21.80;;
48161;SDS011;33950;48.154;16.316;2023-01-23T09:17:26;67.90;;;23.67;;
48161;SDS011;33950;48.154;16.316;2023-01-23T09:20:12;59.63;;;22.23;;
48161;SDS011;33950;48.154;16.316;2023-01-23T09:22:59;62.58;;;21.40;;
48161;SDS011;33950;48.154;16.316;2023-01-23T09:25:45;70.22;;;22.70;;
48161;SDS011;33950;48.154;16.316;2023-01-23T09:28:32;61.25;;;21.17;;
48161;SDS011;33950;48.154;16.316;2023-01-23T09:31:19;64.50;;;22.10;;
48161;SDS011;33950;48.154;16.316;2023-01-23T09:34:05;57.58;;;22.02;;
48161;SDS011;33950;48.154;16.316;2023-01-23T09:36:52;63.97;;;22.58;;
48161;SDS011;33950;48.154;16.316;2023-01-23T09:39:39;55.95;;;20.33;;
48161;SDS011;33950;48.154;16.316;2023-01-23T09:42:28;56.15;;;20.95;;
48161;SDS011;33950;48.154;16.316;2023-01-23T09:45:19;56.40;;;21.00;;
48161;SDS011;33950;48.154;16.316;2023-01-23T09:48:11;59.20;;;20.20;;
48161;SDS011;33950;48.154;16.316;2023-01-23T09:51:05;58.63;;;20.05;;
48161;SDS011;33950;48.154;16.316;2023-01-23T09:54:00;52.25;;;19.33;;
48161;SDS011;33950;48.154;16.316;2023-01-23T09:56:56;53.35;;;19.33;;
48161;SDS011;33950;48.154;16.316;2023-01-23T09:59:48;54.50;;;19.88;;
48161;SDS011;33950;48.154;16.316;2023-01-23T10:02:37;48.67;;;19.38;;
48161;SDS011;33950;48.154;16.316;2023-01-23T10:05:29;50.35;;;18.73;;
48161;SDS011;33950;48.154;16.316;2023-01-23T10:08:26;49.92;;;18.05;;
48161;SDS011;33950;48.154;16.316;2023-01-23T10:11:20;44.22;;;16.70;;
48161;SDS011;33950;48.154;16.316;2023-01-23T10:14:18;47.10;;;18.73;;
48161;SDS011;33950;48.154;16.316;2023-01-23T10:17:24;50.42;;;18.98;;
48161;SDS011;33950;48.154;16.316;2023-01-23T10:20:20;50.17;;;18.17;;
48161;SDS011;33950;48.154;16.316;2023-01-23T10:23:30;46.83;;;18.80;;
48161;SDS011;33950;48.154;16.316;2023-01-23T10:26:27;48.78;;;19.30;;
48161;SDS011;33950;48.154;16.316;2023-01-23T10:29:19;47.65;;;18.80;;
48161;SDS011;33950;48.154;16.316;2023-01-23T10:32:16;49.05;;;18.02;;
48161;SDS011;33950;48.154;16.316;2023-01-23T10:35:10;49.92;;;18.27;;
48161;SDS011;33950;48.154;16.316;2023-01-23T10:38:01;40.03;;;16.55;;
48161;SDS011;33950;48.154;16.316;2023-01-23T10:40:56;40.38;;;17.27;;
48161;SDS011;33950;48.154;16.316;2023-01-23T10:43:57;47.80;;;18.70;;
48161;SDS011;33950;48.154;16.316;2023-01-23T10:46:46;48.90;;;17.85;;
48161;SDS011;33950;48.154;16.316;2023-01-23T10:49:34;50.17;;;18.77;;
48161;SDS011;33950;48.154;16.316;2023-01-23T10:52:29;53.58;;;19.08;;
48161;SDS011;33950;48.154;16.316;2023-01-23T10:55:28;46.55;;;18.95;;
48161;SDS011;33950;48.154;16.316;2023-01-23T10:58:21;52.20;;;21.42;;
48161;SDS011;33950;48.154;16.316;2023-01-23T11:01:20;59.58;;;21.35;;
48161;SDS011;33950;48.154;16.316;2023-01-23T11:04:16;56.55;;;19.98;;
48161;SDS011;33950;48.154;16.316;2023-01-23T11:07:06;58.03;;;21.13;;
48161;SDS011;33950;48.154;16.316;2023-01-23T11:09:56;47.67;;;21.40;;
48161;SDS011;33950;48.154;16.316;2023-01-23T11:12:45;59.28;;;21.35;;
48161;SDS011;33950;48.154;16.316;2023-01-23T11:15:33;53.28;;;21.15;;
48161;SDS011;33950;48.154;16.316;2023-01-23T11:21:23;51.88;;;21.73;;
48161;SDS011;33950;48.154;16.316;2023-01-23T11:24:15;52.78;;;20.88;;
48161;SDS011;33950;48.154;16.316;2023-01-23T11:27:04;53.33;;;20.13;;
48161;SDS011;33950;48.154;16.316;2023-01-23T11:30:02;47.53;;;19.88;;
48161;SDS011;33950;48.154;16.316;2023-01-23T11:33:13;52.75;;;19.92;;
48161;SDS011;33950;48.154;16.316;2023-01-23T11:36:12;45.67;;;18.58;;
48161;SDS011;33950;48.154;16.316;2023-01-23T11:39:23;51.15;;;19.85;;
48161;SDS011;33950;48.154;16.316;2023-01-23T11:42:18;53.10;;;20.98;;
48161;SDS011;33950;48.154;16.316;2023-01-23T11:45:07;51.78;;;19.48;;
48161;SDS011;33950;48.154;16.316;2023-01-23T11:47:59;57.10;;;21.25;;
48161;SDS011;33950;48.154;16.316;2023-01-23T11:51:03;52.05;;;21.40;;
48161;SDS011;33950;48.154;16.316;2023-01-23T11:53:59;51.17;;;20.08;;
48161;SDS011;33950;48.154;16.316;2023-01-23T11:56:55;48.50;;;19.55;;
48161;SDS011;33950;48.154;16.316;2023-01-23T11:59:53;57.13;;;18.73;;
48161;SDS011;33950;48.154;16.316;2023-01-23T12:03:06;51.88;;;20.73;;
48161;SDS011;33950;48.154;16.316;2023-01-23T12:06:17;47.25;;;19.77;;
48161;SDS011;33950;48.154;16.316;2023-01-23T12:09:14;55.10;;;22.20;;
48161;SDS011;33950;48.154;16.316;2023-01-23T12:12:04;47.63;;;19.92;;
48161;SDS011;33950;48.154;16.316;2023-01-23T12:15:01;49.92;;;19.27;;
48161;SDS011;33950;48.154;16.316;2023-01-23T15:11:14;40.75;;;18.73;;
48161;SDS011;33950;48.154;16.316;2023-01-23T15:14:00;41.83;;;18.45;;
48161;SDS011;33950;48.154;16.316;2023-01-23T15:16:47;39.15;;;17.35;;
48161;SDS011;33950;48.154;16.316;2023-01-23T15:19:35;39.53;;;17.13;;
48161;SDS011;33950;48.154;16.316;2023-01-23T15:22:24;41.55;;;17.38;;
48161;SDS011;33950;48.154;16.316;2023-01-23T15:25:25;43.15;;;16.98;;
48161;SDS011;33950;48.154;16.316;2023-01-23T15:28:29;47.60;;;20.73;;
48161;SDS011;33950;48.154;16.316;2023-01-23T15:31:22;40.92;;;19.15;;
48161;SDS011;33950;48.154;16.316;2023-01-23T15:34:18;45.85;;;18.92;;
48161;SDS011;33950;48.154;16.316;2023-01-23T15:37:17;37.47;;;17.25;;
48161;SDS011;33950;48.154;16.316;2023-01-23T15:40:14;40.78;;;18.08;;
48161;SDS011;33950;48.154;16.316;2023-01-23T15:43:02;44.15;;;17.45;;
48161;SDS011;33950;48.154;16.316;2023-01-23T15:45:52;41.65;;;16.80;;
48161;SDS011;33950;48.154;16.316;2023-01-23T15:48:38;46.75;;;18.85;;
48161;SDS011;33950;48.154;16.316;2023-01-23T15:51:24;42.45;;;18.30;;
48161;SDS011;33950;48.154;16.316;2023-01-23T15:54:14;42.67;;;17.77;;
48161;SDS011;33950;48.154;16.316;2023-01-23T15:57:05;48.25;;;21.08;;
48161;SDS011;33950;48.154;16.316;2023-01-23T15:59:54;39.85;;;17.83;;
48161;SDS011;33950;48.154;16.316;2023-01-23T16:02:42;45.97;;;20.33;;
48161;SDS011;33950;48.154;16.316;2023-01-23T16:05:29;46.08;;;18.38;;
48161;SDS011;33950;48.154;16.316;2023-01-23T16:08:19;46.22;;;20.00;;
48161;SDS011;33950;48.154;16.316;2023-01-23T16:11:07;44.33;;;19.85;;
48161;SDS011;33950;48.154;16.316;2023-01-23T16:13:53;38.75;;;18.17;;
48161;SDS011;33950;48.154;16.316;2023-01-23T16:16:39;44.28;;;19.33;;
48161;SDS011;33950;48.154;16.316;2023-01-23T16:19:26;38.25;;;18.17;;
48161;SDS011;33950;48.154;16.316;2023-01-23T16:22:16;43.78;;;18.52;;
48161;SDS011;33950;48.154;16.316;2023-01-23T16:25:14;45.60;;;18.75;;
48161;SDS011;33950;48.154;16.316;2023-01-23T16:28:04;44.28;;;18.20;;
48161;SDS011;33950;48.154;16.316;2023-01-23T16:30:50;46.33;;;18.70;;
48161;SDS011;33950;48.154;16.316;2023-01-23T16:33:37;42.47;;;19.02;;
48161;SDS011;33950;48.154;16.316;2023-01-23T16:36:24;47.10;;;19.45;;
48161;SDS011;33950;48.154;16.316;2023-01-23T16:39:12;43.30;;;19.35;;
48161;SDS011;33950;48.154;16.316;2023-01-23T16:42:01;41.10;;;18.02;;
48161;SDS011;33950;48.154;16.316;2023-01-23T16:44:49;37.22;;;17.27;;
48161;SDS011;33950;48.154;16.316;2023-01-23T16:47:38;40.05;;;19.73;;
48161;SDS011;33950;48.154;16.316;2023-01-23T16:50:25;45.40;;;19.30;;
48161;SDS011;33950;48.154;16.316;2023-01-23T16:53:19;33.80;;;16.70;;
48161;SDS011;33950;48.154;16.316;2023-01-23T16:56:13;43.25;;;18.40;;
48161;SDS011;33950;48.154;16.316;2023-01-23T16:59:05;42.40;;;18.75;;
48161;SDS011;33950;48.154;16.316;2023-01-23T17:01:57;43.38;;;18.30;;
48161;SDS011;33950;48.154;16.316;2023-01-23T17:04:45;38.40;;;17.33;;
48161;SDS011;33950;48.154;16.316;2023-01-23T17:07:31;52.47;;;20.80;;
48161;SDS011;33950;48.154;16.316;2023-01-23T17:10:19;36.00;;;17.52;;
48161;SDS011;33950;48.154;16.316;2023-01-23T17:13:07;40.53;;;17.30;;
48161;SDS011;33950;48.154;16.316;2023-01-23T17:15:55;43.05;;;18.58;;
48161;SDS011;33950;48.154;16.316;2023-01-23T17:18:41;38.95;;;17.90;;
48161;SDS011;33950;48.154;16.316;2023-01-23T17:21:29;39.25;;;17.10;;
48161;SDS011;33950;48.154;16.316;2023-01-23T17:24:18;41.08;;;18.52;;
48161;SDS011;33950;48.154;16.316;2023-01-23T17:27:05;45.13;;;19.35;;
48161;SDS011;33950;48.154;16.316;2023-01-23T17:29:51;43.42;;;19.25;;
48161;SDS011;33950;48.154;16.316;2023-01-23T17:32:37;40.60;;;18.80;;
48161;SDS011;33950;48.154;16.316;2023-01-23T17:35:26;58.35;;;20.27;;
48161;SDS011;33950;48.154;16.316;2023-01-23T17:38:18;40.17;;;17.45;;
48161;SDS011;33950;48.154;16.316;2023-01-23T17:41:09;43.38;;;17.88;;
48161;SDS011;33950;48.154;16.316;2023-01-23T17:43:58;34.73;;;17.90;;
48161;SDS011;33950;48.154;16.316;2023-01-23T17:46:44;39.05;;;16.52;;
48161;SDS011;33950;48.154;16.316;2023-01-23T17:49:31;45.63;;;17.77;;
48161;SDS011;33950;48.154;16.316;2023-01-23T17:52:17;40.72;;;18.02;;
48161;SDS011;33950;48.154;16.316;2023-01-23T17:55:08;39.72;;;18.48;;
48161;SDS011;33950;48.154;16.316;2023-01-23T18:00:46;37.53;;;17.08;;
48161;SDS011;33950;48.154;16.316;2023-01-23T18:03:35;38.42;;;16.52;;
48161;SDS011;33950;48.154;16.316;2023-01-23T18:06:21;42.55;;;18.70;;
48161;SDS011;33950;48.154;16.316;2023-01-23T18:09:07;37.35;;;17.15;;
48161;SDS011;33950;48.154;16.316;2023-01-23T18:11:53;37.25;;;17.80;;
48161;SDS011;33950;48.154;16.316;2023-01-23T18:14:41;35.92;;;16.65;;
48161;SDS011;33950;48.154;16.316;2023-01-23T18:17:35;36.75;;;16.30;;
48161;SDS011;33950;48.154;16.316;2023-01-23T18:20:28;37.30;;;16.95;;
48161;SDS011;33950;48.154;16.316;2023-01-23T18:23:16;47.15;;;18.45;;
48161;SDS011;33950;48.154;16.316;2023-01-23T18:26:05;41.67;;;18.55;;
48161;SDS011;33950;48.154;16.316;2023-01-23T18:29:07;41.60;;;17.10;;
48161;SDS011;33950;48.154;16.316;2023-01-23T18:32:26;42.13;;;18.67;;
48161;SDS011;33950;48.154;16.316;2023-01-23T18:35:35;43.33;;;18.75;;
48161;SDS011;33950;48.154;16.316;2023-01-23T18:38:48;43.75;;;17.85;;
48161;SDS011;33950;48.154;16.316;2023-01-23T18:41:48;39.25;;;16.90;;
48161;SDS011;33950;48.154;16.316;2023-01-23T18:44:46;40.20;;;17.25;;
48161;SDS011;33950;48.154;16.316;2023-01-23T18:47:36;47.25;;;20.23;;
48161;SDS011;33950;48.154;16.316;2023-01-23T18:50:25;44.20;;;18.98;;
48161;SDS011;33950;48.154;16.316;2023-01-23T18:53:13;46.72;;;19.20;;
48161;SDS011;33950;48.154;16.316;2023-01-23T18:56:08;45.58;;;19.50;;
48161;SDS011;33950;48.154;16.316;2023-01-23T18:59:02;47.67;;;19.25;;
48161;SDS011;33950;48.154;16.316;2023-01-23T19:01:57;42.47;;;19.42;;
48161;SDS011;33950;48.154;16.316;2023-01-23T19:04:54;41.22;;;17.92;;
48161;SDS011;33950;48.154;16.316;2023-01-23T19:07:52;38.85;;;17.98;;
48161;SDS011;33950;48.154;16.316;2023-01-23T19:10:40;47.80;;;19.77;;
48161;SDS011;33950;48.154;16.316;2023-01-23T19:13:30;38.78;;;17.17;;